sensor_id;sensor_type;location;lat;lon;timestamp;P1;durP1;ratioP1;P2;durP2;ratioP2
64678;SDS011;51094;53.864;27.676;2023-10-31T00:01:32;5.38;;;5.07;;
64678;SDS011;51094;53.864;27.676;2023-10-31T00:03:59;4.70;;;4.60;;
64678;SDS011;51094;53.864;27.676;2023-10-31T00:06:26;4.50;;;4.40;;
64678;SDS011;51094;53.864;27.676;2023-10-31T00:08:56;4.50;;;4.40;;
64678;SDS011;51094;53.864;27.676;2023-10-31T00:11:23;4.80;;;4.60;;
64678;SDS011;51094;53.864;27.676;2023-10-31T00:13:52;3.95;;;3.85;;
64678;SDS011;51094;53.864;27.676;2023-10-31T00:16:18;4.10;;;4.00;;
64678;SDS011;51094;53.864;27.676;2023-10-31T00:18:47;4.05;;;3.97;;
64678;SDS011;51094;53.864;27.676;2023-10-31T00:21:14;3.60;;;3.50;;
64678;SDS011;51094;53.864;27.676;2023-10-31T00:23:45;3.80;;;3.70;;
64678;SDS011;51094;53.864;27.676;2023-10-31T00:26:12;3.50;;;3.40;;
64678;SDS011;51094;53.864;27.676;2023-10-31T00:28:46;3.60;;;3.50;;
64678;SDS011;51094;53.864;27.676;2023-10-31T00:31:13;3.85;;;3.75;;
64678;SDS011;51094;53.864;27.676;2023-10-31T00:33:40;4.05;;;3.85;;
64678;SDS011;51094;53.864;27.676;2023-10-31T00:36:14;3.65;;;3.50;;
64678;SDS011;51094;53.864;27.676;2023-10-31T00:38:41;3.55;;;3.47;;
64678;SDS011;51094;53.864;27.676;2023-10-31T00:41:08;3.45;;;3.35;;
64678;SDS011;51094;53.864;27.676;2023-10-31T00:43:39;3.10;;;3.10;;
64678;SDS011;51094;53.864;27.676;2023-10-31T00:46:06;3.95;;;3.75;;
64678;SDS011;51094;53.864;27.676;2023-10-31T00:48:33;3.90;;;3.70;;
64678;SDS011;51094;53.864;27.676;2023-10-31T00:51:03;3.95;;;3.85;;
64678;SDS011;51094;53.864;27.676;2023-10-31T00:53:34;3.47;;;3.33;;
64678;SDS011;51094;53.864;27.676;2023-10-31T00:56:03;4.10;;;3.90;;
64678;SDS011;51094;53.864;27.676;2023-10-31T00:58:33;3.63;;;3.53;;
64678;SDS011;51094;53.864;27.676;2023-10-31T01:01:00;3.97;;;3.83;;
64678;SDS011;51094;53.864;27.676;2023-10-31T01:03:27;3.78;;;3.67;;
64678;SDS011;51094;53.864;27.676;2023-10-31T01:05:55;3.30;;;3.20;;
64678;SDS011;51094;53.864;27.676;2023-10-31T01:08:22;3.95;;;3.80;;
64678;SDS011;51094;53.864;27.676;2023-10-31T01:10:49;3.70;;;3.60;;
64678;SDS011;51094;53.864;27.676;2023-10-31T01:13:18;3.30;;;3.20;;
64678;SDS011;51094;53.864;27.676;2023-10-31T01:15:45;3.42;;;3.33;;
64678;SDS011;51094;53.864;27.676;2023-10-31T01:18:12;3.58;;;3.47;;
64678;SDS011;51094;53.864;27.676;2023-10-31T01:20:40;3.30;;;3.20;;
64678;SDS011;51094;53.864;27.676;2023-10-31T01:23:07;3.65;;;3.55;;
64678;SDS011;51094;53.864;27.676;2023-10-31T01:25:34;3.38;;;3.28;;
64678;SDS011;51094;53.864;27.676;2023-10-31T01:28:00;3.47;;;3.38;;
64678;SDS011;51094;53.864;27.676;2023-10-31T01:30:28;3.65;;;3.55;;
64678;SDS011;51094;53.864;27.676;2023-10-31T01:32:55;3.45;;;3.35;;
64678;SDS011;51094;53.864;27.676;2023-10-31T01:35:22;3.42;;;3.33;;
64678;SDS011;51094;53.864;27.676;2023-10-31T01:37:49;3.80;;;3.70;;
64678;SDS011;51094;53.864;27.676;2023-10-31T01:40:15;3.45;;;3.35;;
64678;SDS011;51094;53.864;27.676;2023-10-31T01:42:45;3.53;;;3.42;;
64678;SDS011;51094;53.864;27.676;2023-10-31T01:45:12;3.80;;;3.70;;
64678;SDS011;51094;53.864;27.676;2023-10-31T01:47:42;3.45;;;3.35;;
64678;SDS011;51094;53.864;27.676;2023-10-31T01:50:11;4.00;;;3.60;;
64678;SDS011;51094;53.864;27.676;2023-10-31T01:52:38;4.07;;;3.83;;
64678;SDS011;51094;53.864;27.676;2023-10-31T01:55:05;4.53;;;4.10;;
64678;SDS011;51094;53.864;27.676;2023-10-31T01:57:33;4.05;;;3.72;;
64678;SDS011;51094;53.864;27.676;2023-10-31T02:00:01;9.10;;;8.32;;
64678;SDS011;51094;53.864;27.676;2023-10-31T02:02:37;7.60;;;7.20;;
64678;SDS011;51094;53.864;27.676;2023-10-31T02:05:09;13.50;;;12.43;;
64678;SDS011;51094;53.864;27.676;2023-10-31T02:07:37;13.18;;;12.40;;
64678;SDS011;51094;53.864;27.676;2023-10-31T02:10:10;13.60;;;12.52;;
64678;SDS011;51094;53.864;27.676;2023-10-31T02:12:37;13.65;;;12.55;;
64678;SDS011;51094;53.864;27.676;2023-10-31T02:15:05;9.15;;;8.63;;
64678;SDS011;51094;53.864;27.676;2023-10-31T02:17:32;8.45;;;7.65;;
64678;SDS011;51094;53.864;27.676;2023-10-31T02:19:59;6.80;;;6.50;;
64678;SDS011;51094;53.864;27.676;2023-10-31T02:22:26;5.40;;;5.10;;
64678;SDS011;51094;53.864;27.676;2023-10-31T02:24:53;6.25;;;5.85;;
64678;SDS011;51094;53.864;27.676;2023-10-31T02:27:20;4.40;;;4.15;;
64678;SDS011;51094;53.864;27.676;2023-10-31T02:29:47;4.45;;;4.20;;
64678;SDS011;51094;53.864;27.676;2023-10-31T02:32:17;4.60;;;4.30;;
64678;SDS011;51094;53.864;27.676;2023-10-31T02:34:44;4.30;;;4.10;;
64678;SDS011;51094;53.864;27.676;2023-10-31T02:37:12;4.18;;;3.33;;
64678;SDS011;51094;53.864;27.676;2023-10-31T02:39:39;5.05;;;3.45;;
64678;SDS011;51094;53.864;27.676;2023-10-31T02:42:06;7.55;;;3.28;;
64678;SDS011;51094;53.864;27.676;2023-10-31T02:44:33;3.40;;;2.95;;
64678;SDS011;51094;53.864;27.676;2023-10-31T02:47:01;3.63;;;2.50;;
64678;SDS011;51094;53.864;27.676;2023-10-31T02:49:28;6.50;;;2.70;;
64678;SDS011;51094;53.864;27.676;2023-10-31T02:51:55;5.60;;;2.40;;
64678;SDS011;51094;53.864;27.676;2023-10-31T02:54:22;4.40;;;2.42;;
64678;SDS011;51094;53.864;27.676;2023-10-31T02:56:49;8.52;;;2.70;;
64678;SDS011;51094;53.864;27.676;2023-10-31T02:59:17;4.90;;;2.30;;
64678;SDS011;51094;53.864;27.676;2023-10-31T03:01:47;7.82;;;2.40;;
64678;SDS011;51094;53.864;27.676;2023-10-31T03:04:16;3.28;;;2.35;;
64678;SDS011;51094;53.864;27.676;2023-10-31T03:06:43;5.65;;;2.10;;
64678;SDS011;51094;53.864;27.676;2023-10-31T03:09:13;4.50;;;2.35;;
64678;SDS011;51094;53.864;27.676;2023-10-31T03:11:40;6.85;;;2.90;;
64678;SDS011;51094;53.864;27.676;2023-10-31T03:14:09;16.83;;;3.30;;
64678;SDS011;51094;53.864;27.676;2023-10-31T03:16:36;10.27;;;3.05;;
64678;SDS011;51094;53.864;27.676;2023-10-31T03:19:03;14.45;;;3.55;;
64678;SDS011;51094;53.864;27.676;2023-10-31T03:21:30;18.15;;;3.42;;
64678;SDS011;51094;53.864;27.676;2023-10-31T03:24:00;11.15;;;3.20;;
64678;SDS011;51094;53.864;27.676;2023-10-31T03:26:28;12.25;;;3.20;;
64678;SDS011;51094;53.864;27.676;2023-10-31T03:28:56;12.13;;;3.30;;
64678;SDS011;51094;53.864;27.676;2023-10-31T03:31:25;8.95;;;3.30;;
64678;SDS011;51094;53.864;27.676;2023-10-31T03:33:52;10.20;;;3.03;;
64678;SDS011;51094;53.864;27.676;2023-10-31T03:36:20;10.45;;;3.05;;
64678;SDS011;51094;53.864;27.676;2023-10-31T03:38:47;8.98;;;3.00;;
64678;SDS011;51094;53.864;27.676;2023-10-31T03:41:16;3.83;;;2.53;;
64678;SDS011;51094;53.864;27.676;2023-10-31T03:43:43;9.65;;;2.88;;
64678;SDS011;51094;53.864;27.676;2023-10-31T03:46:11;4.18;;;2.53;;
64678;SDS011;51094;53.864;27.676;2023-10-31T03:48:38;6.43;;;2.88;;
64678;SDS011;51094;53.864;27.676;2023-10-31T03:51:10;7.95;;;3.92;;
64678;SDS011;51094;53.864;27.676;2023-10-31T03:53:40;7.50;;;4.03;;
64678;SDS011;51094;53.864;27.676;2023-10-31T03:56:06;3.85;;;3.55;;
64678;SDS011;51094;53.864;27.676;2023-10-31T03:58:33;5.65;;;4.00;;
64678;SDS011;51094;53.864;27.676;2023-10-31T04:01:02;6.03;;;3.75;;
64678;SDS011;51094;53.864;27.676;2023-10-31T04:03:29;4.65;;;2.65;;
64678;SDS011;51094;53.864;27.676;2023-10-31T04:05:59;3.40;;;3.10;;
64678;SDS011;51094;53.864;27.676;2023-10-31T04:08:28;7.15;;;3.20;;
64678;SDS011;51094;53.864;27.676;2023-10-31T04:10:55;5.78;;;2.95;;
64678;SDS011;51094;53.864;27.676;2023-10-31T04:13:22;3.42;;;2.35;;
64678;SDS011;51094;53.864;27.676;2023-10-31T04:15:49;4.40;;;2.80;;
64678;SDS011;51094;53.864;27.676;2023-10-31T04:18:25;2.65;;;2.42;;
64678;SDS011;51094;53.864;27.676;2023-10-31T04:20:54;9.27;;;2.90;;
64678;SDS011;51094;53.864;27.676;2023-10-31T04:23:21;5.75;;;2.90;;
64678;SDS011;51094;53.864;27.676;2023-10-31T04:25:48;7.45;;;3.50;;
64678;SDS011;51094;53.864;27.676;2023-10-31T04:28:19;4.25;;;3.78;;
64678;SDS011;51094;53.864;27.676;2023-10-31T04:30:46;4.18;;;3.60;;
64678;SDS011;51094;53.864;27.676;2023-10-31T04:33:15;7.97;;;4.47;;
64678;SDS011;51094;53.864;27.676;2023-10-31T04:35:42;4.03;;;3.75;;
64678;SDS011;51094;53.864;27.676;2023-10-31T04:38:09;4.85;;;4.45;;
64678;SDS011;51094;53.864;27.676;2023-10-31T04:40:38;4.10;;;3.90;;
64678;SDS011;51094;53.864;27.676;2023-10-31T04:43:05;5.03;;;4.53;;
64678;SDS011;51094;53.864;27.676;2023-10-31T04:45:32;8.10;;;4.47;;
64678;SDS011;51094;53.864;27.676;2023-10-31T04:47:59;5.32;;;4.25;;
64678;SDS011;51094;53.864;27.676;2023-10-31T04:50:26;5.50;;;4.40;;
64678;SDS011;51094;53.864;27.676;2023-10-31T04:52:52;4.10;;;3.70;;
64678;SDS011;51094;53.864;27.676;2023-10-31T04:55:19;3.50;;;3.40;;
64678;SDS011;51094;53.864;27.676;2023-10-31T04:57:46;4.22;;;3.83;;
64678;SDS011;51094;53.864;27.676;2023-10-31T05:00:13;4.00;;;3.70;;
64678;SDS011;51094;53.864;27.676;2023-10-31T05:02:40;4.80;;;4.40;;
64678;SDS011;51094;53.864;27.676;2023-10-31T05:05:07;4.30;;;4.20;;
64678;SDS011;51094;53.864;27.676;2023-10-31T05:07:35;4.65;;;4.45;;
64678;SDS011;51094;53.864;27.676;2023-10-31T05:10:04;4.93;;;4.72;;
64678;SDS011;51094;53.864;27.676;2023-10-31T05:12:32;4.07;;;3.97;;
64678;SDS011;51094;53.864;27.676;2023-10-31T05:15:02;5.10;;;4.90;;
64678;SDS011;51094;53.864;27.676;2023-10-31T05:17:29;4.80;;;4.70;;
64678;SDS011;51094;53.864;27.676;2023-10-31T05:19:56;4.93;;;4.82;;
64678;SDS011;51094;53.864;27.676;2023-10-31T05:22:23;4.95;;;4.85;;
64678;SDS011;51094;53.864;27.676;2023-10-31T05:24:51;4.07;;;3.97;;
64678;SDS011;51094;53.864;27.676;2023-10-31T05:27:24;4.35;;;4.25;;
64678;SDS011;51094;53.864;27.676;2023-10-31T05:29:51;4.50;;;4.40;;
64678;SDS011;51094;53.864;27.676;2023-10-31T05:32:21;4.93;;;4.82;;
64678;SDS011;51094;53.864;27.676;2023-10-31T05:34:51;4.38;;;4.28;;
64678;SDS011;51094;53.864;27.676;2023-10-31T05:37:20;3.92;;;3.83;;
64678;SDS011;51094;53.864;27.676;2023-10-31T05:39:46;4.40;;;4.30;;
64678;SDS011;51094;53.864;27.676;2023-10-31T05:42:13;4.60;;;4.50;;
64678;SDS011;51094;53.864;27.676;2023-10-31T05:44:41;4.47;;;4.38;;
64678;SDS011;51094;53.864;27.676;2023-10-31T05:47:11;4.40;;;4.30;;
64678;SDS011;51094;53.864;27.676;2023-10-31T05:49:42;4.22;;;4.13;;
64678;SDS011;51094;53.864;27.676;2023-10-31T05:52:10;3.92;;;3.83;;
64678;SDS011;51094;53.864;27.676;2023-10-31T05:54:37;3.70;;;3.65;;
64678;SDS011;51094;53.864;27.676;2023-10-31T05:57:04;3.45;;;3.35;;
64678;SDS011;51094;53.864;27.676;2023-10-31T05:59:31;3.05;;;3.05;;
64678;SDS011;51094;53.864;27.676;2023-10-31T06:01:58;3.60;;;3.58;;
64678;SDS011;51094;53.864;27.676;2023-10-31T06:04:27;3.45;;;3.45;;
64678;SDS011;51094;53.864;27.676;2023-10-31T06:06:55;3.30;;;3.30;;
64678;SDS011;51094;53.864;27.676;2023-10-31T06:09:22;3.28;;;3.28;;
64678;SDS011;51094;53.864;27.676;2023-10-31T06:11:49;2.90;;;2.90;;
64678;SDS011;51094;53.864;27.676;2023-10-31T06:14:18;3.22;;;3.20;;
64678;SDS011;51094;53.864;27.676;2023-10-31T06:16:45;3.00;;;3.00;;
64678;SDS011;51094;53.864;27.676;2023-10-31T06:19:12;3.20;;;3.13;;
64678;SDS011;51094;53.864;27.676;2023-10-31T06:21:43;3.17;;;3.17;;
64678;SDS011;51094;53.864;27.676;2023-10-31T06:24:10;3.25;;;3.25;;
64678;SDS011;51094;53.864;27.676;2023-10-31T06:26:37;3.40;;;3.30;;
64678;SDS011;51094;53.864;27.676;2023-10-31T06:29:07;3.45;;;3.45;;
64678;SDS011;51094;53.864;27.676;2023-10-31T06:31:57;3.45;;;3.35;;
64678;SDS011;51094;53.864;27.676;2023-10-31T06:34:23;3.60;;;3.50;;
64678;SDS011;51094;53.864;27.676;2023-10-31T06:36:53;3.70;;;3.60;;
64678;SDS011;51094;53.864;27.676;2023-10-31T06:39:19;4.00;;;3.90;;
64678;SDS011;51094;53.864;27.676;2023-10-31T06:41:48;4.07;;;3.88;;
64678;SDS011;51094;53.864;27.676;2023-10-31T06:44:14;4.00;;;3.80;;
64678;SDS011;51094;53.864;27.676;2023-10-31T06:46:41;4.03;;;3.90;;
64678;SDS011;51094;53.864;27.676;2023-10-31T06:49:11;4.00;;;3.90;;
64678;SDS011;51094;53.864;27.676;2023-10-31T06:51:37;4.40;;;4.20;;
64678;SDS011;51094;53.864;27.676;2023-10-31T06:54:07;4.15;;;3.95;;
64678;SDS011;51094;53.864;27.676;2023-10-31T06:56:34;4.00;;;3.75;;
64678;SDS011;51094;53.864;27.676;2023-10-31T06:59:01;4.00;;;3.70;;
64678;SDS011;51094;53.864;27.676;2023-10-31T07:01:27;3.92;;;3.70;;
64678;SDS011;51094;53.864;27.676;2023-10-31T07:03:54;4.10;;;3.90;;
64678;SDS011;51094;53.864;27.676;2023-10-31T07:06:23;7.18;;;4.28;;
64678;SDS011;51094;53.864;27.676;2023-10-31T07:08:53;4.60;;;4.30;;
64678;SDS011;51094;53.864;27.676;2023-10-31T07:11:19;4.82;;;4.53;;
64678;SDS011;51094;53.864;27.676;2023-10-31T07:13:46;4.75;;;4.43;;
64678;SDS011;51094;53.864;27.676;2023-10-31T07:16:13;4.25;;;4.10;;
64678;SDS011;51094;53.864;27.676;2023-10-31T07:18:40;4.50;;;4.30;;
64678;SDS011;51094;53.864;27.676;2023-10-31T07:21:09;4.78;;;4.40;;
64678;SDS011;51094;53.864;27.676;2023-10-31T07:23:39;4.90;;;4.70;;
64678;SDS011;51094;53.864;27.676;2023-10-31T07:26:06;4.10;;;3.90;;
64678;SDS011;51094;53.864;27.676;2023-10-31T07:28:33;4.78;;;4.57;;
64678;SDS011;51094;53.864;27.676;2023-10-31T07:31:00;4.20;;;3.90;;
64678;SDS011;51094;53.864;27.676;2023-10-31T07:33:27;4.45;;;4.25;;
64678;SDS011;51094;53.864;27.676;2023-10-31T07:35:57;4.35;;;4.25;;
64678;SDS011;51094;53.864;27.676;2023-10-31T07:38:29;4.22;;;4.13;;
64678;SDS011;51094;53.864;27.676;2023-10-31T07:40:55;4.03;;;4.03;;
64678;SDS011;51094;53.864;27.676;2023-10-31T07:43:24;3.70;;;3.70;;
64678;SDS011;51094;53.864;27.676;2023-10-31T07:45:51;3.80;;;3.80;;
64678;SDS011;51094;53.864;27.676;2023-10-31T07:48:20;3.92;;;3.92;;
64678;SDS011;51094;53.864;27.676;2023-10-31T07:50:57;3.70;;;3.65;;
64678;SDS011;51094;53.864;27.676;2023-10-31T07:53:24;4.45;;;4.35;;
64678;SDS011;51094;53.864;27.676;2023-10-31T07:55:50;5.03;;;4.93;;
64678;SDS011;51094;53.864;27.676;2023-10-31T07:58:17;6.00;;;5.90;;
64678;SDS011;51094;53.864;27.676;2023-10-31T08:00:56;5.82;;;5.72;;
64678;SDS011;51094;53.864;27.676;2023-10-31T08:03:23;5.60;;;5.50;;
64678;SDS011;51094;53.864;27.676;2023-10-31T08:05:50;5.38;;;5.28;;
64678;SDS011;51094;53.864;27.676;2023-10-31T08:08:20;4.68;;;4.57;;
64678;SDS011;51094;53.864;27.676;2023-10-31T08:13:20;5.50;;;5.40;;
64678;SDS011;51094;53.864;27.676;2023-10-31T08:15:49;5.70;;;5.60;;
64678;SDS011;51094;53.864;27.676;2023-10-31T08:18:22;6.07;;;5.97;;
64678;SDS011;51094;53.864;27.676;2023-10-31T08:20:52;5.80;;;5.70;;
64678;SDS011;51094;53.864;27.676;2023-10-31T08:23:20;6.07;;;5.97;;
64678;SDS011;51094;53.864;27.676;2023-10-31T08:25:47;6.18;;;6.07;;
64678;SDS011;51094;53.864;27.676;2023-10-31T08:28:14;5.90;;;5.80;;
64678;SDS011;51094;53.864;27.676;2023-10-31T08:30:46;6.22;;;6.13;;
64678;SDS011;51094;53.864;27.676;2023-10-31T08:33:16;6.10;;;6.00;;
64678;SDS011;51094;53.864;27.676;2023-10-31T08:35:43;6.20;;;6.10;;
64678;SDS011;51094;53.864;27.676;2023-10-31T08:38:10;5.88;;;5.78;;
64678;SDS011;51094;53.864;27.676;2023-10-31T08:40:52;5.90;;;5.80;;
64678;SDS011;51094;53.864;27.676;2023-10-31T08:43:21;5.33;;;5.23;;
64678;SDS011;51094;53.864;27.676;2023-10-31T08:45:52;5.40;;;5.30;;
64678;SDS011;51094;53.864;27.676;2023-10-31T08:48:19;5.20;;;5.10;;
64678;SDS011;51094;53.864;27.676;2023-10-31T08:50:46;5.40;;;5.30;;
64678;SDS011;51094;53.864;27.676;2023-10-31T08:53:16;5.57;;;5.47;;
64678;SDS011;51094;53.864;27.676;2023-10-31T08:55:46;5.93;;;5.82;;
64678;SDS011;51094;53.864;27.676;2023-10-31T08:58:13;5.55;;;5.45;;
64678;SDS011;51094;53.864;27.676;2023-10-31T09:00:40;5.45;;;5.35;;
64678;SDS011;51094;53.864;27.676;2023-10-31T09:03:10;5.10;;;5.10;;
64678;SDS011;51094;53.864;27.676;2023-10-31T09:05:40;4.90;;;4.80;;
64678;SDS011;51094;53.864;27.676;2023-10-31T09:08:07;4.68;;;4.57;;
64678;SDS011;51094;53.864;27.676;2023-10-31T09:10:38;3.97;;;3.88;;
64678;SDS011;51094;53.864;27.676;2023-10-31T09:13:09;4.32;;;4.28;;
64678;SDS011;51094;53.864;27.676;2023-10-31T09:15:37;3.65;;;3.65;;
64678;SDS011;51094;53.864;27.676;2023-10-31T09:18:07;3.80;;;3.70;;
64678;SDS011;51094;53.864;27.676;2023-10-31T09:20:34;3.70;;;3.60;;
64678;SDS011;51094;53.864;27.676;2023-10-31T09:23:03;3.72;;;3.67;;
64678;SDS011;51094;53.864;27.676;2023-10-31T09:25:30;3.13;;;3.13;;
64678;SDS011;51094;53.864;27.676;2023-10-31T09:27:57;3.00;;;3.00;;
64678;SDS011;51094;53.864;27.676;2023-10-31T09:30:26;3.10;;;3.10;;
64678;SDS011;51094;53.864;27.676;2023-10-31T09:32:53;3.20;;;3.20;;
64678;SDS011;51094;53.864;27.676;2023-10-31T09:35:20;3.00;;;3.00;;
64678;SDS011;51094;53.864;27.676;2023-10-31T09:37:47;3.15;;;3.05;;
64678;SDS011;51094;53.864;27.676;2023-10-31T09:40:16;3.05;;;3.05;;
64678;SDS011;51094;53.864;27.676;2023-10-31T09:42:46;2.80;;;2.80;;
64678;SDS011;51094;53.864;27.676;2023-10-31T09:45:14;2.90;;;2.90;;
64678;SDS011;51094;53.864;27.676;2023-10-31T09:47:41;2.70;;;2.70;;
64678;SDS011;51094;53.864;27.676;2023-10-31T09:50:10;2.90;;;2.80;;
64678;SDS011;51094;53.864;27.676;2023-10-31T09:52:41;3.13;;;3.03;;
64678;SDS011;51094;53.864;27.676;2023-10-31T09:55:08;3.20;;;3.10;;
64678;SDS011;51094;53.864;27.676;2023-10-31T09:57:35;2.80;;;2.80;;
64678;SDS011;51094;53.864;27.676;2023-10-31T10:00:03;2.65;;;2.65;;
64678;SDS011;51094;53.864;27.676;2023-10-31T10:02:35;3.00;;;3.00;;
64678;SDS011;51094;53.864;27.676;2023-10-31T10:05:02;2.90;;;2.90;;
64678;SDS011;51094;53.864;27.676;2023-10-31T10:07:30;2.83;;;2.83;;
64678;SDS011;51094;53.864;27.676;2023-10-31T10:09:59;3.10;;;3.10;;
64678;SDS011;51094;53.864;27.676;2023-10-31T10:12:27;2.85;;;2.85;;
64678;SDS011;51094;53.864;27.676;2023-10-31T10:14:54;3.50;;;3.40;;
64678;SDS011;51094;53.864;27.676;2023-10-31T10:17:21;2.97;;;2.97;;
64678;SDS011;51094;53.864;27.676;2023-10-31T10:20:07;3.28;;;3.17;;
64678;SDS011;51094;53.864;27.676;2023-10-31T10:22:39;2.90;;;2.90;;
64678;SDS011;51094;53.864;27.676;2023-10-31T10:25:16;2.80;;;2.80;;
64678;SDS011;51094;53.864;27.676;2023-10-31T10:27:47;2.80;;;2.80;;
64678;SDS011;51094;53.864;27.676;2023-10-31T10:30:17;2.70;;;2.70;;
64678;SDS011;51094;53.864;27.676;2023-10-31T10:32:44;3.08;;;2.97;;
64678;SDS011;51094;53.864;27.676;2023-10-31T10:35:14;2.67;;;2.67;;
64678;SDS011;51094;53.864;27.676;2023-10-31T10:37:47;2.90;;;2.90;;
64678;SDS011;51094;53.864;27.676;2023-10-31T10:40:17;2.60;;;2.60;;
64678;SDS011;51094;53.864;27.676;2023-10-31T10:42:44;3.05;;;3.00;;
64678;SDS011;51094;53.864;27.676;2023-10-31T10:45:18;2.90;;;2.80;;
64678;SDS011;51094;53.864;27.676;2023-10-31T10:47:50;2.60;;;2.60;;
64678;SDS011;51094;53.864;27.676;2023-10-31T10:50:19;2.50;;;2.50;;
64678;SDS011;51094;53.864;27.676;2023-10-31T10:55:32;2.80;;;2.80;;
64678;SDS011;51094;53.864;27.676;2023-10-31T11:00:34;2.53;;;2.50;;
64678;SDS011;51094;53.864;27.676;2023-10-31T11:03:04;2.72;;;2.70;;
64678;SDS011;51094;53.864;27.676;2023-10-31T11:05:32;2.75;;;2.75;;
64678;SDS011;51094;53.864;27.676;2023-10-31T11:08:00;2.40;;;2.40;;
64678;SDS011;51094;53.864;27.676;2023-10-31T11:10:28;2.22;;;2.20;;
64678;SDS011;51094;53.864;27.676;2023-10-31T11:12:56;2.55;;;2.50;;
64678;SDS011;51094;53.864;27.676;2023-10-31T11:15:23;2.83;;;2.83;;
64678;SDS011;51094;53.864;27.676;2023-10-31T11:17:52;2.50;;;2.50;;
64678;SDS011;51094;53.864;27.676;2023-10-31T11:20:21;2.50;;;2.50;;
64678;SDS011;51094;53.864;27.676;2023-10-31T11:22:54;2.47;;;2.47;;
64678;SDS011;51094;53.864;27.676;2023-10-31T11:25:24;2.80;;;2.70;;
64678;SDS011;51094;53.864;27.676;2023-10-31T11:28:11;2.40;;;2.40;;
64678;SDS011;51094;53.864;27.676;2023-10-31T11:30:45;2.45;;;2.45;;
64678;SDS011;51094;53.864;27.676;2023-10-31T11:33:20;2.30;;;2.30;;
64678;SDS011;51094;53.864;27.676;2023-10-31T11:35:50;2.38;;;2.38;;
64678;SDS011;51094;53.864;27.676;2023-10-31T11:38:27;2.40;;;2.40;;
64678;SDS011;51094;53.864;27.676;2023-10-31T11:41:08;2.35;;;2.35;;
64678;SDS011;51094;53.864;27.676;2023-10-31T11:43:36;2.33;;;2.33;;
64678;SDS011;51094;53.864;27.676;2023-10-31T11:46:24;2.28;;;2.28;;
64678;SDS011;51094;53.864;27.676;2023-10-31T11:48:58;2.53;;;2.53;;
64678;SDS011;51094;53.864;27.676;2023-10-31T11:51:31;2.33;;;2.30;;
64678;SDS011;51094;53.864;27.676;2023-10-31T11:53:59;2.10;;;2.10;;
64678;SDS011;51094;53.864;27.676;2023-10-31T11:56:28;2.40;;;2.30;;
64678;SDS011;51094;53.864;27.676;2023-10-31T11:58:55;2.33;;;2.28;;
64678;SDS011;51094;53.864;27.676;2023-10-31T12:01:23;2.20;;;2.20;;
64678;SDS011;51094;53.864;27.676;2023-10-31T12:03:53;2.30;;;2.30;;
64678;SDS011;51094;53.864;27.676;2023-10-31T12:06:20;2.40;;;2.40;;
64678;SDS011;51094;53.864;27.676;2023-10-31T12:08:51;2.17;;;2.17;;
64678;SDS011;51094;53.864;27.676;2023-10-31T12:11:25;2.40;;;2.40;;
64678;SDS011;51094;53.864;27.676;2023-10-31T12:13:53;2.22;;;2.22;;
64678;SDS011;51094;53.864;27.676;2023-10-31T12:16:28;2.30;;;2.30;;
64678;SDS011;51094;53.864;27.676;2023-10-31T12:19:03;2.33;;;2.30;;
64678;SDS011;51094;53.864;27.676;2023-10-31T12:24:14;2.50;;;2.50;;
64678;SDS011;51094;53.864;27.676;2023-10-31T12:26:45;3.20;;;3.10;;
64678;SDS011;51094;53.864;27.676;2023-10-31T12:29:13;3.67;;;3.58;;
64678;SDS011;51094;53.864;27.676;2023-10-31T12:31:48;4.70;;;4.60;;
64678;SDS011;51094;53.864;27.676;2023-10-31T12:34:22;4.80;;;4.70;;
64678;SDS011;51094;53.864;27.676;2023-10-31T12:36:53;4.90;;;4.80;;
64678;SDS011;51094;53.864;27.676;2023-10-31T12:39:25;4.88;;;4.68;;
64678;SDS011;51094;53.864;27.676;2023-10-31T12:41:54;5.80;;;5.60;;
64678;SDS011;51094;53.864;27.676;2023-10-31T12:44:25;5.47;;;5.28;;
64678;SDS011;51094;53.864;27.676;2023-10-31T12:46:54;5.20;;;5.00;;
64678;SDS011;51094;53.864;27.676;2023-10-31T12:49:24;4.13;;;4.00;;
64678;SDS011;51094;53.864;27.676;2023-10-31T12:51:57;3.92;;;3.83;;
64678;SDS011;51094;53.864;27.676;2023-10-31T12:54:34;3.20;;;3.10;;
64678;SDS011;51094;53.864;27.676;2023-10-31T12:59:34;4.43;;;4.32;;
64678;SDS011;51094;53.864;27.676;2023-10-31T13:02:05;3.53;;;3.42;;
64678;SDS011;51094;53.864;27.676;2023-10-31T13:04:38;2.88;;;2.80;;
64678;SDS011;51094;53.864;27.676;2023-10-31T13:07:06;2.90;;;2.80;;
64678;SDS011;51094;53.864;27.676;2023-10-31T13:09:35;3.28;;;3.17;;
64678;SDS011;51094;53.864;27.676;2023-10-31T13:12:05;3.30;;;3.20;;
64678;SDS011;51094;53.864;27.676;2023-10-31T13:14:33;3.72;;;3.63;;
64678;SDS011;51094;53.864;27.676;2023-10-31T13:17:03;4.35;;;4.15;;
64678;SDS011;51094;53.864;27.676;2023-10-31T13:19:33;3.58;;;3.47;;
64678;SDS011;51094;53.864;27.676;2023-10-31T13:22:00;4.88;;;4.68;;
64678;SDS011;51094;53.864;27.676;2023-10-31T13:24:26;4.07;;;3.97;;
64678;SDS011;51094;53.864;27.676;2023-10-31T13:26:54;4.20;;;4.00;;
64678;SDS011;51094;53.864;27.676;2023-10-31T13:29:24;3.60;;;3.50;;
64678;SDS011;51094;53.864;27.676;2023-10-31T13:31:53;3.08;;;2.97;;
64678;SDS011;51094;53.864;27.676;2023-10-31T13:34:20;3.00;;;2.90;;
64678;SDS011;51094;53.864;27.676;2023-10-31T13:36:47;3.03;;;2.92;;
64678;SDS011;51094;53.864;27.676;2023-10-31T13:39:18;2.75;;;2.65;;
64678;SDS011;51094;53.864;27.676;2023-10-31T13:41:45;2.40;;;2.40;;
64678;SDS011;51094;53.864;27.676;2023-10-31T13:44:13;2.55;;;2.55;;
64678;SDS011;51094;53.864;27.676;2023-10-31T13:46:40;2.75;;;2.70;;
64678;SDS011;51094;53.864;27.676;2023-10-31T13:49:09;2.90;;;2.80;;
64678;SDS011;51094;53.864;27.676;2023-10-31T13:51:36;2.67;;;2.67;;
64678;SDS011;51094;53.864;27.676;2023-10-31T13:54:06;2.80;;;2.72;;
64678;SDS011;51094;53.864;27.676;2023-10-31T13:56:33;2.58;;;2.47;;
64678;SDS011;51094;53.864;27.676;2023-10-31T13:59:02;2.47;;;2.47;;
64678;SDS011;51094;53.864;27.676;2023-10-31T14:01:30;2.75;;;2.65;;
64678;SDS011;51094;53.864;27.676;2023-10-31T14:03:57;2.95;;;2.85;;
64678;SDS011;51094;53.864;27.676;2023-10-31T14:08:57;2.50;;;2.50;;
64678;SDS011;51094;53.864;27.676;2023-10-31T14:11:31;2.70;;;2.60;;
64678;SDS011;51094;53.864;27.676;2023-10-31T14:13:59;2.60;;;2.60;;
64678;SDS011;51094;53.864;27.676;2023-10-31T14:16:29;2.90;;;2.80;;
64678;SDS011;51094;53.864;27.676;2023-10-31T14:18:56;2.55;;;2.45;;
64678;SDS011;51094;53.864;27.676;2023-10-31T14:21:23;2.95;;;2.85;;
64678;SDS011;51094;53.864;27.676;2023-10-31T14:23:52;2.90;;;2.80;;
64678;SDS011;51094;53.864;27.676;2023-10-31T14:26:30;2.78;;;2.67;;
64678;SDS011;51094;53.864;27.676;2023-10-31T14:29:02;2.85;;;2.85;;
64678;SDS011;51094;53.864;27.676;2023-10-31T14:31:29;2.88;;;2.88;;
64678;SDS011;51094;53.864;27.676;2023-10-31T14:33:56;2.78;;;2.78;;
64678;SDS011;51094;53.864;27.676;2023-10-31T14:36:24;2.83;;;2.83;;
64678;SDS011;51094;53.864;27.676;2023-10-31T14:38:51;3.10;;;3.00;;
64678;SDS011;51094;53.864;27.676;2023-10-31T14:41:18;3.05;;;2.95;;
64678;SDS011;51094;53.864;27.676;2023-10-31T14:43:45;3.30;;;3.20;;
64678;SDS011;51094;53.864;27.676;2023-10-31T14:46:12;3.35;;;3.25;;
64678;SDS011;51094;53.864;27.676;2023-10-31T14:48:41;3.42;;;3.33;;
64678;SDS011;51094;53.864;27.676;2023-10-31T14:51:08;3.78;;;3.67;;
64678;SDS011;51094;53.864;27.676;2023-10-31T14:53:38;3.50;;;3.40;;
64678;SDS011;51094;53.864;27.676;2023-10-31T14:56:11;3.53;;;3.42;;
64678;SDS011;51094;53.864;27.676;2023-10-31T14:58:37;3.72;;;3.63;;